• Join FlightAware (Why Join?)
  • Login
  • US Flag 
11:34AM EDT


 

Airport Tracker/Info


-or-


 

Live Flight TrackerFlight Track Log ✈ CES5522 ✈ 08-Oct-2013 ✈ ZSQD / TAO - ZSPD / PVG

Flight Track Log - Related Links

Times and Time Zones

All times are in EDT time to prevent confusion due to time zone crossing. See the CES5522 flight status page for this flight to view local times or setup timezone preferences in your user account.

Time Position Orientation Groundspeed Altitude Reporting Facility
EDT Latitude Longitude Course Direction KTS MPH feet Rate Location/Type
09:34AM 32.6311 121.3980 167° South  Level Estimated
09:35AM 32.5378 121.4231 167° South  Level Estimated
09:36AM 32.4445 121.4482 167° South  Level Estimated
09:37AM 32.3511 121.4732 167° South  Level Estimated
09:38AM 32.2578 121.4981 167° South  Level Estimated
09:39AM 32.1645 121.5230 167° South  Level Estimated
09:40AM 32.0711 121.5479 167° South  Level Estimated
09:41AM 31.9778 121.5727 167° South  Level Estimated
09:42AM 31.8844 121.5975 167° South  Level Estimated
09:43AM 31.7911 121.6222 167° South  Level Estimated
09:44AM 31.6977 121.6468 167° South  Level Estimated
09:45AM 31.6044 121.6714 167° South  Level Estimated
09:46AM 31.5110 121.6960 167° South  Level Estimated
09:47AM 31.4176 121.7205 167° South  Level Estimated
09:48AM 31.3242 121.7450 167° South  Level Estimated
09:49AM 31.2309 121.7694 167° South  Level Estimated
09:50AM 31.1428 121.7924 167° South  Level Estimated
09:51AM 31.1428 121.7924 221° Southwest  Level Estimated
09:52AM 31.1428 121.7924 221° Southwest  Level Estimated
09:53AM 31.1428 121.7924 221° Southwest  Level Estimated
09:54AM 31.1428 121.7924 221° Southwest  Level Estimated
09:55AM 31.1428 121.7924 221° Southwest  Level Estimated
09:56AM 31.1428 121.7924 221° Southwest  Level Estimated
09:57AM 31.1428 121.7924 221° Southwest  Level Estimated
09:58AM 31.1428 121.7924 221° Southwest  Level Estimated
09:59AM 31.1428 121.7924 221° Southwest  Level Estimated
10:00AM 31.1428 121.7924 221° Southwest  Level Estimated
10:01AM 31.1428 121.7924 221° Southwest  Level Estimated
10:02AM 31.1428 121.7924 221° Southwest  Level Estimated
10:03AM 31.1428 121.7924 221° Southwest  Level Estimated
10:04AM 31.1428 121.7924 221° Southwest  Level Estimated
10:05AM 31.1428 121.7924 221° Southwest  Level Estimated
10:06AM 31.1428 121.7924 221° Southwest  Level Estimated